Time;durP1;ratioP1;P1;durP2;ratioP2;P2;SDS_P1;SDS_P2;PMS_P1;PMS_P2;Temp;Humidity;BMP_temperature;BMP_pressure;BME280_temperature;BME280_humidity;BME280_pressure;Samples;Min_cycle;Max_cycle;Signal;HPM_P1;HPM_P2
2021/06/28 00:03:42;;;;;;;6.75;4.97;;;;;;;22.60;59.95;95109.25;4496450;26;20067;-77
2021/06/28 00:06:09;;;;;;;7.85;4.50;;;;;;;23.04;60.05;95192.25;5056396;28;20073;-77
2021/06/28 00:08:35;;;;;;;6.43;4.28;;;;;;;22.93;59.96;95192.31;5071108;28;20028;-76
2021/06/28 00:11:01;;;;;;;6.68;4.68;;;;;;;22.98;60.10;95188.81;5070808;28;20028;-77
2021/06/28 00:13:26;;;;;;;6.40;4.95;;;;;;;22.94;60.72;95193.81;5087253;28;20032;-77
2021/06/28 00:15:52;;;;;;;8.45;5.22;;;;;;;22.93;60.40;95203.22;5051631;28;20086;-77
2021/06/28 00:18:17;;;;;;;5.65;4.30;;;;;;;22.92;60.32;95209.88;5069493;28;20021;-77
2021/06/28 00:20:43;;;;;;;5.53;4.60;;;;;;;22.88;60.23;95200.47;5075148;28;20032;-77
2021/06/28 00:23:08;;;;;;;6.95;4.80;;;;;;;22.83;60.10;95197.78;5073359;28;20126;-77
2021/06/28 00:25:34;;;;;;;6.65;4.65;;;;;;;22.81;59.80;95195.56;5069788;28;20028;-77
2021/06/28 00:28:00;;;;;;;8.38;4.70;;;;;;;22.81;60.09;95194.81;5072383;28;20024;-77
2021/06/28 00:30:25;;;;;;;6.13;4.47;;;;;;;22.64;59.98;95175.06;5075150;28;20507;-77
2021/06/28 00:32:51;;;;;;;7.28;4.53;;;;;;;22.19;59.87;95108.41;5089227;28;20394;-77
2021/06/28 00:35:18;;;;;;;6.40;4.60;;;;;;;22.68;60.60;95192.63;5081578;28;20490;-77
2021/06/28 00:57:29;;;;;;;6.13;4.50;;;;;;;22.34;61.33;95185.06;4898074;28;1408614;-77
2021/06/28 00:59:55;;;;;;;7.97;4.93;;;;;;;21.60;61.20;95079.38;4945583;29;20052;-77
2021/06/28 01:02:20;;;;;;;7.28;4.43;;;;;;;22.34;61.16;95185.06;4961076;28;20031;-77
2021/06/28 01:04:46;;;;;;;6.20;4.72;;;;;;;21.86;61.72;95123.31;4944972;29;20027;-78
2021/06/28 01:07:11;;;;;;;8.00;4.68;;;;;;;22.24;62.02;95186.56;4944620;29;20043;-77
2021/06/28 01:09:37;;;;;;;5.60;4.70;;;;;;;22.10;61.47;95165.78;4929353;29;20054;-77
2021/06/28 01:12:04;;;;;;;5.38;4.43;;;;;;;21.89;61.56;95128.50;4944595;29;20449;-77
2021/06/28 01:14:30;;;;;;;6.53;4.78;;;;;;;22.20;61.60;95183.31;4945072;29;20082;-77
2021/06/28 01:16:55;;;;;;;7.68;4.70;;;;;;;22.19;61.81;95187.28;4913043;29;20027;-77
2021/06/28 01:19:22;;;;;;;7.10;4.45;;;;;;;22.06;61.93;95170.75;4914738;29;20039;-77
2021/06/28 01:21:47;;;;;;;7.82;5.10;;;;;;;22.14;62.16;95185.31;4945000;29;20042;-77
2021/06/28 01:24:13;;;;;;;9.70;5.38;;;;;;;22.10;62.36;95182.09;4960619;28;20035;-77
2021/06/28 01:26:38;;;;;;;7.32;4.93;;;;;;;22.10;62.24;95182.09;4944801;29;20608;-79
2021/06/28 01:29:04;;;;;;;6.82;5.03;;;;;;;22.07;62.50;95188.53;4928710;29;20569;-77
2021/06/28 01:31:29;;;;;;;8.77;5.32;;;;;;;21.98;62.56;95180.63;4928781;29;20036;-76
2021/06/28 01:33:55;;;;;;;7.82;4.90;;;;;;;21.89;62.66;95165.81;4985398;28;20513;-77
2021/06/28 01:36:20;;;;;;;6.95;5.05;;;;;;;21.42;62.67;95107.00;5126296;28;20026;-77
2021/06/28 01:38:48;;;;;;;7.03;4.65;;;;;;;21.92;62.57;95182.59;5107864;28;20038;-76
2021/06/28 01:41:13;;;;;;;6.80;4.97;;;;;;;21.93;62.63;95183.38;5127957;28;20039;-77
2021/06/28 01:43:40;;;;;;;7.43;4.78;;;;;;;21.82;63.08;95185.34;5143743;28;20023;-77
2021/06/28 01:46:06;;;;;;;7.40;5.45;;;;;;;21.90;63.18;95206.09;5129696;28;20008;-77
2021/06/28 01:48:31;;;;;;;8.80;4.85;;;;;;;21.47;63.23;95144.31;5152024;27;20027;-76
2021/06/28 01:50:57;;;;;;;6.05;4.55;;;;;;;21.51;63.14;95152.97;5136769;27;20114;-75
2021/06/28 01:53:22;;;;;;;5.95;4.78;;;;;;;20.91;62.75;95073.38;5126281;28;20061;-73
2021/06/28 01:55:48;;;;;;;6.47;4.60;;;;;;;21.36;63.04;95146.25;5090412;28;20504;-77
2021/06/28 01:58:14;;;;;;;10.88;5.00;;;;;;;21.33;63.08;95137.13;5125230;28;20035;-77
2021/06/28 02:00:45;;;;;;;10.07;5.65;;;;;;;21.76;63.05;95195.47;5090660;28;20029;-76
2021/06/28 02:03:14;;;;;;;7.35;4.88;;;;;;;21.71;63.16;95193.50;5125690;28;20011;-77
2021/06/28 02:05:48;;;;;;;6.80;5.07;;;;;;;21.60;63.29;95196.22;5111399;28;20457;-76
2021/06/28 02:08:14;;;;;;;7.03;5.15;;;;;;;21.63;63.50;95203.38;5111062;28;20020;-76
2021/06/28 02:10:42;;;;;;;7.55;4.95;;;;;;;21.61;63.29;95212.03;5110667;28;20038;-76
2021/06/28 02:13:07;;;;;;;7.90;5.32;;;;;;;21.69;63.17;95212.28;5092576;28;20034;-76
2021/06/28 02:15:33;;;;;;;7.00;4.70;;;;;;;21.03;63.54;95111.66;5111487;28;20412;-76
2021/06/28 02:17:59;;;;;;;7.63;5.13;;;;;;;21.57;63.50;95205.34;5075865;28;20412;-77
2021/06/28 02:20:24;;;;;;;7.10;4.90;;;;;;;21.33;63.77;95177.88;5111700;28;20031;-76
2021/06/28 02:22:50;;;;;;;6.70;4.65;;;;;;;21.52;63.57;95208.78;5092845;28;20096;-76
2021/06/28 02:25:16;;;;;;;9.48;5.25;;;;;;;21.33;63.88;95196.88;5110993;28;20096;-77
2021/06/28 02:27:41;;;;;;;7.72;5.20;;;;;;;20.63;63.73;95080.69;5076783;28;20032;-77
2021/06/28 02:30:12;;;;;;;6.43;4.60;;;;;;;21.44;63.55;95207.75;5093226;28;20031;-76
2021/06/28 02:32:38;;;;;;;7.68;5.78;;;;;;;21.44;63.47;95210.47;5110946;28;20059;-77
2021/06/28 02:35:05;;;;;;;9.68;4.55;;;;;;;21.37;63.60;95208.22;5092808;28;20474;-77
2021/06/28 02:37:31;;;;;;;8.00;5.22;;;;;;;21.20;63.71;95193.88;5110664;28;20025;-75
2021/06/28 02:39:57;;;;;;;8.98;5.25;;;;;;;21.16;63.59;95187.94;5074934;28;20428;-76
2021/06/28 02:42:22;;;;;;;6.13;4.95;;;;;;;20.62;63.69;95128.78;5110830;28;20501;-77
2021/06/28 02:44:47;;;;;;;8.20;4.90;;;;;;;21.23;63.76;95220.06;5092705;28;20027;-77
2021/06/28 02:47:13;;;;;;;8.40;4.85;;;;;;;21.20;63.46;95193.88;5111192;28;20024;-77
2021/06/28 02:49:38;;;;;;;7.63;4.43;;;;;;;21.17;63.70;95199.56;5110819;28;20031;-77
2021/06/28 02:52:04;;;;;;;6.82;4.43;;;;;;;21.17;63.56;95205.72;5110745;28;20023;-76
2021/06/28 02:54:30;;;;;;;7.63;5.07;;;;;;;20.51;63.55;95117.16;5111395;28;20020;-77
2021/06/28 02:56:55;;;;;;;6.93;4.97;;;;;;;21.12;63.67;95220.03;5092735;28;20066;-76
2021/06/28 02:59:21;;;;;;;7.80;4.50;;;;;;;20.65;63.71;95148.75;5110337;28;20516;-77
2021/06/28 03:01:47;;;;;;;7.07;4.22;;;;;;;21.10;63.82;95219.75;5110888;28;20043;-77
2021/06/28 03:04:13;;;;;;;7.07;4.55;;;;;;;21.00;64.31;95221.22;5110123;28;20035;-76
2021/06/28 03:06:38;;;;;;;12.23;4.53;;;;;;;21.01;63.86;95211.84;5092007;28;20031;-77
2021/06/28 03:09:04;;;;;;;8.65;4.60;;;;;;;20.85;63.69;95197.47;5074532;28;20032;-77
2021/06/28 03:11:29;;;;;;;6.20;5.07;;;;;;;20.63;63.79;95162.09;5109949;28;20509;-77
2021/06/28 03:13:55;;;;;;;7.43;4.43;;;;;;;20.53;63.50;95152.66;5091457;28;20019;-76
2021/06/28 03:16:20;;;;;;;9.38;4.72;;;;;;;21.01;63.75;95214.53;5074047;28;20046;-76
2021/06/28 03:18:46;;;;;;;6.75;4.90;;;;;;;20.89;64.12;95211.56;5109876;28;20023;-76
2021/06/28 03:21:12;;;;;;;7.70;4.90;;;;;;;20.88;63.97;95220.91;5092219;28;20039;-76
2021/06/28 03:23:41;;;;;;;9.35;5.38;;;;;;;20.36;63.66;95143.72;5075431;28;20030;-77
2021/06/28 03:26:06;;;;;;;8.07;5.10;;;;;;;20.60;64.05;95176.63;5075258;28;20027;-77
2021/06/28 03:28:32;;;;;;;8.73;5.03;;;;;;;20.44;63.78;95150.16;5109954;28;20024;-77
2021/06/28 03:30:57;;;;;;;7.25;5.18;;;;;;;20.75;63.99;95196.94;5091519;28;20061;-77
2021/06/28 03:33:23;;;;;;;9.15;5.32;;;;;;;20.98;64.14;95222.94;5109091;28;20122;-72
2021/06/28 03:35:50;;;;;;;8.35;5.07;;;;;;;21.20;63.24;95225.72;5109216;28;20019;-71
2021/06/28 03:38:15;;;;;;;7.18;4.75;;;;;;;21.38;62.72;95226.03;5107001;28;20024;-76
2021/06/28 03:40:41;;;;;;;6.45;4.70;;;;;;;21.55;62.34;95224.09;5090923;28;20026;-73
2021/06/28 03:43:07;;;;;;;6.40;4.57;;;;;;;21.55;61.96;95203.13;5109137;28;20081;-74
2021/06/28 03:45:33;;;;;;;6.25;4.65;;;;;;;21.86;61.66;95226.63;5073999;28;20518;-72
2021/06/28 03:47:58;;;;;;;7.00;4.55;;;;;;;21.97;61.25;95228.09;5108350;28;20106;-72
2021/06/28 03:50:24;;;;;;;9.48;5.07;;;;;;;22.06;61.26;95230.56;5108681;28;20023;-72
2021/06/28 03:52:49;;;;;;;7.75;4.75;;;;;;;22.10;61.16;95236.47;5108563;28;20030;-72
2021/06/28 03:55:14;;;;;;;9.07;4.22;;;;;;;22.16;60.77;95239.94;5109133;28;20026;-73
2021/06/28 03:57:40;;;;;;;10.13;4.78;;;;;;;22.23;60.91;95228.59;5108538;28;20043;-73
2021/06/28 04:00:13;;;;;;;6.40;4.93;;;;;;;22.26;60.55;95227.63;5067208;28;20032;-73
2021/06/28 04:02:43;;;;;;;8.23;5.22;;;;;;;22.19;60.48;95206.31;5097232;28;20031;-74
2021/06/28 04:05:10;;;;;;;6.13;4.65;;;;;;;22.41;60.25;95230.81;5082939;28;20035;-73
2021/06/28 04:07:36;;;;;;;6.97;4.70;;;;;;;22.46;60.27;95235.50;5099931;28;20259;-73
2021/06/28 04:10:05;;;;;;;9.40;4.90;;;;;;;22.51;60.22;95238.22;5098945;28;20038;-74
2021/06/28 04:12:31;;;;;;;8.57;4.72;;;;;;;22.46;60.06;95230.06;5100948;28;20016;-75
2021/06/28 04:14:56;;;;;;;6.88;5.00;;;;;;;22.13;59.88;95170.22;5080276;28;20031;-75
2021/06/28 04:17:22;;;;;;;6.72;5.03;;;;;;;22.64;59.49;95240.41;5081929;28;20042;-75
2021/06/28 04:19:47;;;;;;;8.65;4.68;;;;;;;22.66;59.77;95232.47;5077730;28;20039;-74
2021/06/28 04:22:13;;;;;;;7.60;4.50;;;;;;;22.38;58.95;95191.00;5097294;28;20027;-74
2021/06/28 04:24:39;;;;;;;9.13;4.32;;;;;;;22.76;59.21;95231.69;5098388;28;20477;-74
2021/06/28 04:27:04;;;;;;;8.10;4.70;;;;;;;22.44;59.24;95189.00;5080747;28;20032;-74
2021/06/28 04:29:30;;;;;;;8.10;4.90;;;;;;;22.84;59.12;95237.38;5102943;28;20015;-76
2021/06/28 04:31:56;;;;;;;7.68;4.65;;;;;;;22.70;58.24;95211.19;5108292;28;20032;-75
2021/06/28 04:34:21;;;;;;;8.07;4.68;;;;;;;22.46;57.71;95170.19;5074424;28;20477;-74
2021/06/28 04:36:46;;;;;;;6.78;4.45;;;;;;;22.96;58.44;95240.34;5114195;28;20463;-72
2021/06/28 04:39:12;;;;;;;7.82;4.80;;;;;;;23.00;57.77;95243.56;5110000;28;20489;-72
2021/06/28 04:41:37;;;;;;;8.55;4.50;;;;;;;22.99;57.49;95244.78;5111195;28;21303;-72
2021/06/28 04:44:03;;;;;;;7.68;4.25;;;;;;;23.03;56.45;95242.56;5120414;28;20027;-75
2021/06/28 04:46:29;;;;;;;5.57;4.10;;;;;;;22.95;56.50;95216.31;5124900;28;20031;-74
2021/06/28 04:48:54;;;;;;;6.70;4.57;;;;;;;22.26;56.10;95113.34;5112570;28;20490;-74
2021/06/28 04:51:19;;;;;;;6.00;4.25;;;;;;;23.25;56.26;95256.06;5094544;28;20031;-71
2021/06/28 04:53:45;;;;;;;9.25;4.65;;;;;;;23.33;55.47;95254.28;5108777;28;20030;-71
2021/06/28 04:56:11;;;;;;;7.82;4.57;;;;;;;23.35;55.78;95243.63;5128952;28;20054;-72
2021/06/28 04:58:36;;;;;;;7.97;4.78;;;;;;;23.37;55.03;95230.25;5108628;28;20391;-73
2021/06/28 05:01:02;;;;;;;8.02;5.18;;;;;;;23.62;54.98;95257.09;5110441;28;20432;-73
2021/06/28 05:03:27;;;;;;;7.85;4.65;;;;;;;23.73;55.12;95256.34;5106819;28;20038;-73
2021/06/28 05:05:53;;;;;;;7.53;4.55;;;;;;;23.71;54.01;95231.56;5107934;28;20447;-71
2021/06/28 05:08:18;;;;;;;8.55;4.75;;;;;;;23.98;54.33;95253.91;5107428;28;20562;-72
2021/06/28 05:10:44;;;;;;;7.03;5.07;;;;;;;24.07;53.66;95256.34;5107661;28;20092;-75
2021/06/28 05:13:09;;;;;;;7.13;4.55;;;;;;;24.16;53.66;95242.38;5087639;28;20032;-74
2021/06/28 05:15:35;;;;;;;7.57;4.72;;;;;;;24.34;53.35;95256.13;5088946;28;20031;-74
2021/06/28 05:18:00;;;;;;;9.15;5.05;;;;;;;24.33;52.59;95243.00;5105406;28;20077;-72
2021/06/28 05:20:26;;;;;;;9.57;5.00;;;;;;;24.61;52.42;95262.59;5089491;28;20678;-70
2021/06/28 05:22:51;;;;;;;7.60;4.65;;;;;;;24.73;52.34;95258.50;5103010;28;20850;-73
2021/06/28 05:25:16;;;;;;;8.45;5.30;;;;;;;24.85;52.00;95261.34;5082056;28;20100;-75
2021/06/28 05:27:42;;;;;;;9.20;5.43;;;;;;;24.42;51.29;95185.34;5101322;28;20463;-75
2021/06/28 05:30:10;;;;;;;8.93;5.55;;;;;;;25.07;51.25;95263.13;5079844;28;20101;-75
2021/06/28 05:32:35;;;;;;;8.73;4.95;;;;;;;25.16;50.73;95258.03;5097968;28;20115;-74
2021/06/28 05:35:01;;;;;;;9.05;4.57;;;;;;;25.26;50.83;95270.13;5104565;28;20038;-75
2021/06/28 05:37:26;;;;;;;9.18;5.10;;;;;;;25.37;51.11;95272.72;5102490;28;20460;-74
2021/06/28 05:39:52;;;;;;;6.68;4.47;;;;;;;25.50;50.95;95275.50;5105564;28;20473;-72
2021/06/28 05:42:17;;;;;;;7.70;4.57;;;;;;;25.60;50.85;95279.38;5100739;28;20028;-74
2021/06/28 05:44:43;;;;;;;7.45;5.60;;;;;;;25.64;51.03;95279.81;5103202;28;20412;-74
2021/06/28 05:47:09;;;;;;;12.35;5.57;;;;;;;25.75;50.76;95291.34;5107738;28;20485;-74
2021/06/28 05:49:36;;;;;;;8.52;5.22;;;;;;;25.81;50.62;95279.09;5106038;28;20043;-73
2021/06/28 05:52:03;;;;;;;8.57;5.45;;;;;;;25.94;50.03;95295.56;5101676;28;20121;-71
2021/06/28 05:54:29;;;;;;;7.43;4.78;;;;;;;25.50;49.56;95226.28;5099704;28;20228;-72
2021/06/28 05:56:54;;;;;;;9.45;5.07;;;;;;;26.07;50.12;95295.63;5099030;28;20048;-72
2021/06/28 05:59:20;;;;;;;7.18;5.13;;;;;;;26.14;50.33;95295.00;5104740;28;20031;-72
2021/06/28 06:01:45;;;;;;;7.72;4.97;;;;;;;26.27;48.98;95295.84;5100964;28;20032;-72
2021/06/28 06:04:14;;;;;;;9.05;5.15;;;;;;;26.32;48.95;95297.00;5088058;28;20485;-73
2021/06/28 06:06:41;;;;;;;10.77;5.13;;;;;;;26.40;48.86;95306.13;5105126;28;20470;-75
2021/06/28 06:09:06;;;;;;;8.98;5.20;;;;;;;26.45;48.84;95294.31;5089881;28;20020;-74
2021/06/28 06:11:32;;;;;;;8.13;5.22;;;;;;;26.56;47.95;95291.38;5090419;28;20062;-74
2021/06/28 06:13:57;;;;;;;9.32;5.00;;;;;;;26.62;47.68;95300.25;5072192;28;20039;-74
2021/06/28 06:16:24;;;;;;;8.50;5.20;;;;;;;26.46;47.23;95265.69;5098240;28;20563;-73
2021/06/28 06:18:50;;;;;;;8.40;5.68;;;;;;;26.11;47.04;95197.50;5080576;28;20564;-77
2021/06/28 06:21:15;;;;;;;8.23;5.43;;;;;;;26.71;47.26;95291.63;5066025;28;20051;-72
2021/06/28 06:23:41;;;;;;;9.48;5.45;;;;;;;26.15;47.71;95197.22;5102553;28;20016;-72
2021/06/28 06:26:06;;;;;;;9.25;4.65;;;;;;;26.88;47.33;95301.78;5075101;28;20035;-77
2021/06/28 06:28:32;;;;;;;9.05;5.50;;;;;;;26.86;47.29;95287.88;5108356;28;20068;-77
2021/06/28 06:30:57;;;;;;;7.68;4.78;;;;;;;26.89;46.43;95292.34;5109216;28;20105;-77
2021/06/28 06:33:23;;;;;;;8.38;5.18;;;;;;;26.48;46.18;95224.81;5080158;28;20042;-77
2021/06/28 06:35:49;;;;;;;10.82;5.22;;;;;;;26.83;46.33;95286.19;5087291;28;20121;-76
2021/06/28 06:38:14;;;;;;;9.10;4.80;;;;;;;26.66;46.80;95273.28;5088038;28;20035;-77
2021/06/28 06:40:40;;;;;;;10.75;4.90;;;;;;;26.89;46.99;95303.28;5103674;28;20095;-77
2021/06/28 06:43:05;;;;;;;8.20;5.00;;;;;;;26.12;46.99;95193.53;5102405;28;21010;-77
2021/06/28 06:45:31;;;;;;;8.32;4.68;;;;;;;26.81;47.21;95296.91;5110892;27;20035;-77
2021/06/28 06:47:56;;;;;;;10.30;4.90;;;;;;;26.81;47.08;95296.19;5104415;28;20036;-77
2021/06/28 06:50:22;;;;;;;8.00;4.60;;;;;;;26.64;47.05;95270.34;5105135;28;20111;-77
2021/06/28 06:52:47;;;;;;;8.10;4.72;;;;;;;26.73;46.69;95289.13;5115674;27;20061;-78
2021/06/28 06:55:13;;;;;;;7.45;4.38;;;;;;;26.75;46.51;95281.13;5105605;28;20046;-79
2021/06/28 06:57:38;;;;;;;8.43;4.93;;;;;;;26.66;46.98;95289.75;5085754;28;20596;-79
2021/06/28 07:00:06;;;;;;;9.93;5.47;;;;;;;26.53;46.66;95289.69;5081652;28;20024;-80
2021/06/28 07:02:31;;;;;;;8.88;5.30;;;;;;;26.50;47.73;95296.22;5084183;28;20023;-80
2021/06/28 07:04:57;;;;;;;9.57;5.13;;;;;;;26.40;47.81;95279.47;5087250;28;20428;-80
2021/06/28 07:07:23;;;;;;;14.68;6.30;;;;;;;26.44;47.45;95279.13;5088216;28;20506;-84
2021/06/28 07:09:49;;;;;;;12.30;5.82;;;;;;;26.17;48.09;95247.44;5084177;28;20107;-76
2021/06/28 07:12:14;;;;;;;9.35;4.80;;;;;;;26.32;48.56;95288.78;5082695;28;20036;-78
2021/06/28 07:14:40;;;;;;;9.00;4.95;;;;;;;26.17;48.46;95288.50;5077750;28;20059;-78
2021/06/28 07:17:05;;;;;;;8.48;5.07;;;;;;;26.16;48.46;95281.56;5070318;28;20588;-78
2021/06/28 07:19:30;;;;;;;10.70;4.50;;;;;;;25.50;49.06;95201.66;5088164;28;20089;-78
2021/06/28 07:21:56;;;;;;;8.73;4.82;;;;;;;26.11;49.20;95276.91;5071388;28;20496;-77
2021/06/28 07:24:22;;;;;;;9.48;5.28;;;;;;;26.03;49.35;95267.09;5085876;28;20036;-78
2021/06/28 07:26:47;;;;;;;6.90;4.20;;;;;;;26.07;48.99;95268.25;5089213;28;20035;-78
2021/06/28 07:29:13;;;;;;;9.98;4.53;;;;;;;26.11;49.72;95273.44;5083303;28;20032;-78
2021/06/28 07:31:38;;;;;;;8.95;4.82;;;;;;;26.15;49.62;95277.34;5088333;28;20020;-79
2021/06/28 07:34:04;;;;;;;6.25;3.97;;;;;;;25.78;49.65;95223.94;5088346;28;20028;-79
2021/06/28 07:36:29;;;;;;;8.65;4.60;;;;;;;26.17;49.72;95277.56;5089527;28;20024;-78
2021/06/28 07:38:56;;;;;;;8.02;4.32;;;;;;;26.05;49.83;95254.38;5089495;28;20024;-79
2021/06/28 07:41:21;;;;;;;5.93;3.88;;;;;;;26.19;49.47;95264.09;5089348;28;20035;-78
2021/06/28 07:43:47;;;;;;;6.00;4.10;;;;;;;25.70;49.54;95206.66;5089790;28;20035;-78
2021/06/28 07:46:12;;;;;;;9.75;4.78;;;;;;;25.99;49.72;95245.50;5088828;28;20024;-79
2021/06/28 07:48:38;;;;;;;6.47;4.30;;;;;;;25.71;49.70;95213.59;5069771;28;20481;-78
2021/06/28 07:51:03;;;;;;;5.95;3.80;;;;;;;26.20;49.42;95271.03;5088018;28;21354;-78
2021/06/28 07:53:29;;;;;;;6.55;3.53;;;;;;;25.93;49.00;95235.88;5088636;28;20028;-78
2021/06/28 07:55:54;;;;;;;5.35;3.47;;;;;;;26.17;48.64;95274.81;5087849;28;20055;-78
2021/06/28 07:58:20;;;;;;;7.20;3.60;;;;;;;26.05;48.75;95259.84;5088586;28;20016;-78
2021/06/28 08:00:45;;;;;;;4.65;3.67;;;;;;;25.99;48.76;95250.22;5088872;28;20039;-79
2021/06/28 08:03:11;;;;;;;5.70;3.78;;;;;;;26.17;49.11;95283.03;5088295;28;20093;-79
2021/06/28 08:05:37;;;;;;;5.20;3.60;;;;;;;26.16;48.49;95280.81;5088177;28;20032;-80
2021/06/28 08:08:03;;;;;;;5.18;3.20;;;;;;;26.01;48.27;95264.88;5083548;28;20031;-85
2021/06/28 08:10:28;;;;;;;8.43;3.67;;;;;;;25.78;48.55;95221.19;5086776;28;20044;-80
2021/06/28 08:12:54;;;;;;;5.82;3.58;;;;;;;26.05;48.53;95264.56;5071964;28;20040;-79
2021/06/28 08:15:19;;;;;;;5.00;3.72;;;;;;;26.17;47.95;95283.03;5089207;28;20398;-79
2021/06/28 08:17:48;;;;;;;6.55;3.55;;;;;;;26.17;48.20;95280.28;5089043;28;20489;-78
2021/06/28 08:20:15;;;;;;;3.90;2.97;;;;;;;26.11;48.05;95267.94;5089340;28;20056;-79
2021/06/28 08:22:41;;;;;;;4.90;3.50;;;;;;;25.99;47.78;95255.69;5071272;28;20356;-79
2021/06/28 08:25:07;;;;;;;5.07;3.42;;;;;;;26.20;48.12;95295.66;5087495;28;20696;-77
2021/06/28 08:27:32;;;;;;;5.20;3.35;;;;;;;26.14;48.37;95289.53;5088529;28;20210;-78
2021/06/28 08:29:58;;;;;;;5.53;3.28;;;;;;;26.21;48.66;95288.94;5085993;28;20489;-76
2021/06/28 08:32:23;;;;;;;4.10;3.13;;;;;;;26.23;48.86;95291.88;5088544;28;20036;-75
2021/06/28 08:34:48;;;;;;;6.07;3.60;;;;;;;26.18;48.95;95272.84;5087895;28;20561;-78
2021/06/28 08:37:14;;;;;;;3.78;3.15;;;;;;;26.26;49.16;95288.13;5089079;28;20426;-77
2021/06/28 08:39:39;;;;;;;6.47;3.40;;;;;;;26.14;48.99;95255.97;5086964;28;20482;-78
2021/06/28 08:42:06;;;;;;;4.38;3.40;;;;;;;26.32;49.72;95283.31;5070800;28;20110;-81
2021/06/28 08:44:32;;;;;;;3.72;2.80;;;;;;;26.27;47.90;95264.97;5083209;28;20059;-80
2021/06/28 08:46:58;;;;;;;4.55;2.90;;;;;;;25.94;47.52;95226.41;5077381;28;20170;-82
2021/06/28 08:49:24;;;;;;;5.57;3.17;;;;;;;26.12;47.52;95264.69;5102680;28;20548;-82
2021/06/28 08:51:49;;;;;;;4.68;3.20;;;;;;;25.90;47.83;95221.25;5085526;28;20028;-82
2021/06/28 08:54:15;;;;;;;4.75;3.28;;;;;;;26.30;47.48;95263.94;5066672;28;20027;-81
2021/06/28 08:56:43;;;;;;;5.35;2.88;;;;;;;26.10;47.55;95250.81;5096787;28;20525;-81
2021/06/28 08:59:08;;;;;;;4.75;3.08;;;;;;;26.27;47.58;95264.97;5103542;28;20032;-82
2021/06/28 09:01:34;;;;;;;4.00;3.17;;;;;;;26.21;47.45;95267.03;5104940;28;20027;-82
2021/06/28 09:04:00;;;;;;;4.55;3.45;;;;;;;26.13;47.13;95254.47;5068906;28;20520;-82
2021/06/28 09:06:26;;;;;;;3.72;2.65;;;;;;;26.26;47.36;95279.91;5103203;28;20026;-83
2021/06/28 09:08:53;;;;;;;5.43;3.47;;;;;;;26.15;47.05;95263.66;5109905;28;20020;-82
2021/06/28 09:11:18;;;;;;;4.10;3.08;;;;;;;25.96;46.95;95227.38;5109005;28;20557;-81
2021/06/28 09:13:46;;;;;;;3.75;3.10;;;;;;;26.26;46.83;95270.97;5091285;28;20035;-81
2021/06/28 09:16:28;;;;;;;5.45;2.90;;;;;;;26.22;46.99;95274.00;5095199;28;20096;-82
2021/06/28 09:19:05;;;;;;;3.70;2.80;;;;;;;26.25;46.74;95272.97;5117242;28;20110;-82
2021/06/28 09:21:42;;;;;;;4.68;2.75;;;;;;;26.26;46.79;95266.22;5117795;28;20160;-82
2021/06/28 09:24:44;;;;;;;3.85;2.90;;;;;;;26.16;46.76;95251.44;5112448;28;20019;-81
2021/06/28 09:27:10;;;;;;;4.63;3.08;;;;;;;26.27;47.16;95262.22;5090763;28;20034;-78
2021/06/28 09:29:37;;;;;;;5.15;2.60;;;;;;;25.91;46.54;95211.78;5111760;28;20031;-80
2021/06/28 09:32:16;;;;;;;5.78;3.10;;;;;;;25.94;46.89;95216.19;5113297;28;20451;-82
2021/06/28 09:34:45;;;;;;;5.03;3.30;;;;;;;26.26;46.58;95255.25;5095000;28;20023;-81
2021/06/28 09:37:15;;;;;;;4.03;2.50;;;;;;;26.14;46.54;95234.06;5095832;28;20028;-82
2021/06/28 09:39:43;;;;;;;4.03;2.78;;;;;;;26.35;46.70;95271.31;5112913;28;20058;-82
2021/06/28 09:42:08;;;;;;;3.33;2.70;;;;;;;26.36;46.41;95272.81;5094852;28;20066;-82
2021/06/28 09:44:36;;;;;;;3.20;2.40;;;;;;;25.85;46.65;95189.22;5110577;28;20074;-81
2021/06/28 09:47:12;;;;;;;3.50;2.60;;;;;;;26.40;46.67;95262.28;5076262;28;20027;-79
2021/06/28 09:49:39;;;;;;;5.30;2.90;;;;;;;26.49;47.15;95268.09;5109503;28;20462;-82
2021/06/28 09:52:05;;;;;;;4.47;2.70;;;;;;;26.45;46.38;95251.22;5092959;28;20028;-85
2021/06/28 09:54:32;;;;;;;3.92;2.72;;;;;;;26.63;46.38;95263.38;5112612;28;20110;-78
2021/06/28 09:56:58;;;;;;;3.53;2.47;;;;;;;25.93;45.85;95149.06;5094692;28;20047;-79
2021/06/28 09:59:24;;;;;;;3.70;2.67;;;;;;;26.80;46.09;95268.06;5092696;28;20065;-78
2021/06/28 10:01:51;;;;;;;4.30;2.63;;;;;;;26.89;45.75;95275.88;5100263;28;20499;-75
2021/06/28 10:04:58;;;;;;;4.22;2.70;;;;;;;27.01;45.27;95279.91;5105782;28;20027;-80
2021/06/28 10:07:27;;;;;;;4.35;2.60;;;;;;;27.12;45.00;95271.47;5075443;28;20062;-80
2021/06/28 10:10:17;;;;;;;3.80;2.70;;;;;;;27.22;44.73;95272.53;5110661;28;20036;-82
2021/06/28 10:12:49;;;;;;;4.15;2.40;;;;;;;27.10;44.87;95241.09;5090658;28;20489;-79
2021/06/28 10:15:16;;;;;;;4.22;2.60;;;;;;;27.19;44.53;95237.94;5089789;28;20084;-79
2021/06/28 10:17:41;;;;;;;3.80;2.42;;;;;;;26.94;44.03;95190.06;5090272;28;20451;-80
2021/06/28 10:20:08;;;;;;;3.90;2.50;;;;;;;27.50;44.22;95256.25;5092429;28;20104;-77
2021/06/28 10:22:34;;;;;;;4.00;2.53;;;;;;;27.11;43.64;95193.19;5091550;28;20019;-77
2021/06/28 10:25:00;;;;;;;4.80;2.75;;;;;;;27.66;43.93;95257.91;5075746;28;20528;-78
2021/06/28 10:27:26;;;;;;;3.05;2.15;;;;;;;27.02;43.43;95155.25;5091950;28;20054;-80
2021/06/28 10:29:52;;;;;;;3.35;2.42;;;;;;;27.07;43.24;95154.41;5076374;28;20062;-80
2021/06/28 10:32:18;;;;;;;4.57;2.33;;;;;;;27.95;43.74;95263.00;5076798;28;20041;-79
2021/06/28 10:34:49;;;;;;;3.38;2.30;;;;;;;27.66;43.32;95214.00;5106037;28;20030;-79
2021/06/28 10:37:36;;;;;;;3.17;2.40;;;;;;;28.04;42.42;95254.28;5075215;28;20023;-83
2021/06/28 10:40:07;;;;;;;2.42;2.17;;;;;;;28.06;42.46;95236.03;5109124;28;20497;-80
2021/06/28 10:42:35;;;;;;;3.85;2.22;;;;;;;28.16;42.52;95239.81;5108928;28;20110;-79
2021/06/28 10:45:01;;;;;;;3.33;2.13;;;;;;;28.11;42.90;95221.44;5089959;28;20038;-80
2021/06/28 10:47:28;;;;;;;4.78;2.33;;;;;;;28.22;42.14;95232.19;5110364;28;20440;-80
2021/06/28 10:49:54;;;;;;;2.83;2.38;;;;;;;28.06;42.33;95208.56;5108785;28;20072;-79
2021/06/28 10:52:38;;;;;;;3.67;2.00;;;;;;;28.22;42.01;95232.19;5120666;28;20026;-79
2021/06/28 10:55:23;;;;;;;4.47;2.40;;;;;;;28.22;42.57;95232.19;5134904;28;20035;-79
2021/06/28 10:57:52;;;;;;;4.38;2.10;;;;;;;28.11;41.93;95210.47;5133422;28;20087;-79
2021/06/28 11:00:17;;;;;;;3.13;2.20;;;;;;;27.99;41.54;95195.50;5129063;28;20039;-80
2021/06/28 11:02:43;;;;;;;2.85;1.95;;;;;;;28.14;42.12;95219.66;5076015;28;20105;-79
2021/06/28 11:05:10;;;;;;;2.83;2.00;;;;;;;28.10;41.87;95220.00;5107655;28;20042;-80
2021/06/28 11:07:42;;;;;;;2.40;1.80;;;;;;;27.68;42.10;95162.06;5108057;28;20077;-79
2021/06/28 11:10:13;;;;;;;2.55;2.00;;;;;;;27.99;42.16;95209.22;5091654;28;20071;-79
2021/06/28 11:12:39;;;;;;;2.90;2.20;;;;;;;27.90;42.37;95217.91;5092528;28;20030;-80
2021/06/28 11:15:19;;;;;;;2.33;2.00;;;;;;;27.91;42.70;95213.19;5110247;28;20023;-80
2021/06/28 11:17:49;;;;;;;2.40;1.90;;;;;;;27.87;42.30;95205.25;5104561;28;20046;-79
2021/06/28 11:20:27;;;;;;;3.45;2.00;;;;;;;27.79;42.25;95201.72;5104901;28;20027;-78
2021/06/28 11:23:04;;;;;;;2.60;1.85;;;;;;;27.78;42.84;95205.72;5110467;28;20027;-79
2021/06/28 11:25:55;;;;;;;2.67;2.08;;;;;;;27.62;43.16;95180.66;5109931;28;20130;-80
2021/06/28 11:28:24;;;;;;;2.25;1.70;;;;;;;27.71;42.57;95204.91;5110517;28;20024;-79
2021/06/28 11:30:54;;;;;;;3.08;1.95;;;;;;;27.61;43.04;95181.91;5110914;28;20032;-80
2021/06/28 11:33:33;;;;;;;2.67;2.10;;;;;;;27.28;42.83;95147.00;5110151;28;20049;-79
2021/06/28 11:36:00;;;;;;;3.17;2.13;;;;;;;27.24;42.68;95133.59;5092268;28;20016;-79
2021/06/28 11:38:36;;;;;;;2.38;1.90;;;;;;;27.61;43.10;95187.41;5091223;28;20061;-79
2021/06/28 11:41:03;;;;;;;2.47;1.90;;;;;;;27.54;42.63;95182.59;5109346;28;20015;-79
2021/06/28 11:43:41;;;;;;;2.55;2.15;;;;;;;27.11;42.87;95121.91;5089948;28;20490;-79
2021/06/28 11:46:28;;;;;;;2.83;2.00;;;;;;;26.58;41.65;95077.94;5092738;28;20632;-79
2021/06/28 11:49:04;;;;;;;2.10;1.70;;;;;;;26.97;41.28;95177.31;5078084;28;20122;-79
2021/06/28 11:51:36;;;;;;;3.25;2.10;;;;;;;26.71;40.46;95177.31;5109900;28;20076;-80
2021/06/28 11:54:03;;;;;;;2.50;1.73;;;;;;;26.51;39.95;95168.97;5106405;28;20110;-78
2021/06/28 11:56:31;;;;;;;2.30;1.80;;;;;;;26.27;39.29;95178.09;5107540;28;20051;-79